Weather at Băneasa International Airport

Public forecast

Using degrees Celsius for public forecast. Weather courtesy of forecast.io.

Current aviation weather report (METAR) for Băneasa International Airport

Report is more than 6 hours old.

2022/11/14 15:30 (retrieved 2 years ago)

LRBS 141530Z 07005KT 9999 BKN014 OVC019 09/06 Q1027 NOSIG

Aviation forecast (TAF) for Băneasa International Airport

Forecast is more than 12 hours old.

2023/02/22 18:33 (retrieved 1 year ago)

TAF TAF LRBS 221700Z 2218/2318 06008KT 9999 SCT040 PROB40 TEMPO 2308/2315 07015G25KT TEMPO 2313/2318 5000 -RA BR BKN010 BKN035